Time;durP1;ratioP1;P1;durP2;ratioP2;P2;SDS_P1;SDS_P2;PMS_P1;PMS_P2;Temp;Humidity;BMP_temperature;BMP_pressure;BME280_temperature;BME280_humidity;BME280_pressure;Samples;Min_cycle;Max_cycle;Signal;HPM_P1;HPM_P2
2023/04/04 00:01:01;;;;;;;10.00;2.75;;;-1.20;99.90;;;;;;5049465;28;20471;-66
2023/04/04 00:03:27;;;;;;;7.15;2.28;;;-1.20;99.90;;;;;;5060468;28;20529;-66
2023/04/04 00:05:52;;;;;;;7.03;2.28;;;-1.30;99.90;;;;;;5060432;28;20032;-66
2023/04/04 00:08:18;;;;;;;5.60;2.00;;;-1.30;99.90;;;;;;5059272;28;20055;-66
2023/04/04 00:10:43;;;;;;;9.00;1.98;;;-1.30;99.90;;;;;;5058303;28;20062;-66
2023/04/04 00:13:10;;;;;;;4.15;1.75;;;-1.30;99.90;;;;;;5059814;28;20033;-66
2023/04/04 00:15:36;;;;;;;5.57;1.90;;;-1.30;99.90;;;;;;5040169;28;20048;-66
2023/04/04 00:18:02;;;;;;;6.78;1.90;;;-1.40;99.90;;;;;;5051812;28;20436;-65
2023/04/04 00:20:31;;;;;;;3.90;1.77;;;-1.30;99.90;;;;;;5043423;28;20087;-65
2023/04/04 00:22:57;;;;;;;4.40;2.00;;;-1.30;99.90;;;;;;5041041;28;20060;-65
2023/04/04 00:25:26;;;;;;;4.35;1.60;;;-1.20;99.90;;;;;;5043112;28;20041;-65
2023/04/04 00:27:52;;;;;;;4.80;1.45;;;-1.30;99.90;;;;;;5047949;28;20040;-65
2023/04/04 00:30:17;;;;;;;10.20;2.00;;;-1.30;99.90;;;;;;5045599;28;20374;-66
2023/04/04 00:32:43;;;;;;;7.07;1.95;;;-1.30;99.90;;;;;;5040164;28;20041;-66
2023/04/04 00:35:08;;;;;;;5.07;1.98;;;-1.40;99.90;;;;;;5044784;28;20029;-66
2023/04/04 00:37:34;;;;;;;4.25;1.98;;;-1.40;99.90;;;;;;5047142;28;20107;-66
2023/04/04 00:40:02;;;;;;;7.43;2.08;;;-1.40;99.90;;;;;;5044969;28;20051;-66
2023/04/04 00:42:28;;;;;;;6.53;1.90;;;-1.40;99.90;;;;;;5047700;28;20053;-66
2023/04/04 00:44:54;;;;;;;5.30;1.70;;;-1.50;99.90;;;;;;5044268;28;20049;-66
2023/04/04 00:47:24;;;;;;;5.38;1.58;;;-1.40;99.90;;;;;;5046821;28;20033;-66
2023/04/04 00:49:50;;;;;;;9.73;1.92;;;-1.30;99.90;;;;;;5044042;28;20043;-66
2023/04/04 00:52:16;;;;;;;7.20;1.77;;;-1.30;99.90;;;;;;5047055;28;20403;-66
2023/04/04 00:54:42;;;;;;;5.68;1.85;;;-1.30;99.90;;;;;;5040714;28;20037;-65
2023/04/04 00:57:08;;;;;;;6.80;2.13;;;-1.30;99.90;;;;;;5044697;28;20044;-66
2023/04/04 00:59:35;;;;;;;7.82;2.30;;;-1.40;99.90;;;;;;5043857;28;20045;-66
2023/04/04 01:02:01;;;;;;;4.47;1.75;;;-1.50;99.90;;;;;;5046391;28;20135;-65
2023/04/04 01:04:30;;;;;;;5.38;1.80;;;-1.40;99.90;;;;;;5042089;28;20033;-66
2023/04/04 01:06:56;;;;;;;4.65;2.20;;;-1.50;99.90;;;;;;5046293;28;20041;-66
2023/04/04 01:09:22;;;;;;;5.75;1.80;;;-1.50;99.90;;;;;;5043799;28;20047;-66
2023/04/04 01:11:47;;;;;;;10.70;2.05;;;-1.50;99.90;;;;;;5046726;28;20037;-66
2023/04/04 01:14:13;;;;;;;3.53;1.63;;;-1.50;99.90;;;;;;5043631;28;20059;-66
2023/04/04 01:16:40;;;;;;;6.00;1.80;;;-1.40;99.90;;;;;;5046893;28;20140;-66
2023/04/04 01:19:10;;;;;;;10.10;2.40;;;-1.40;99.90;;;;;;5043144;28;20037;-67
2023/04/04 01:21:36;;;;;;;5.50;1.80;;;-1.50;99.90;;;;;;5047454;28;20103;-66
2023/04/04 01:24:03;;;;;;;7.70;1.98;;;-1.50;99.90;;;;;;5043444;28;20041;-67
2023/04/04 01:26:29;;;;;;;3.78;1.70;;;-1.50;99.90;;;;;;5043195;28;20052;-67
2023/04/04 01:28:58;;;;;;;6.65;1.95;;;-1.50;99.90;;;;;;5039319;28;20041;-66
2023/04/04 01:31:37;;;;;;;8.13;2.30;;;-1.60;99.90;;;;;;5043011;28;20041;-64
2023/04/04 01:34:27;;;;;;;7.25;1.92;;;-1.50;99.90;;;;;;5044110;28;20037;-66
2023/04/04 01:36:59;;;;;;;4.60;1.95;;;-1.50;99.90;;;;;;5041729;28;20094;-66
2023/04/04 01:39:43;;;;;;;4.38;2.17;;;-1.40;99.90;;;;;;5041325;28;20493;-67
2023/04/04 01:42:10;;;;;;;19.80;3.38;;;-1.50;99.90;;;;;;5046322;28;20037;-66
2023/04/04 01:44:36;;;;;;;3.63;1.85;;;-1.60;99.90;;;;;;5042703;28;20052;-66
2023/04/04 01:47:06;;;;;;;9.05;2.10;;;-1.60;99.90;;;;;;5043005;28;20044;-66
2023/04/04 01:49:31;;;;;;;10.38;2.13;;;-1.50;99.90;;;;;;5045350;28;20072;-65
2023/04/04 01:51:57;;;;;;;10.32;2.15;;;-1.60;99.90;;;;;;5045569;28;20134;-65
2023/04/04 01:54:22;;;;;;;8.77;2.05;;;-1.70;99.90;;;;;;5043658;28;20076;-66
2023/04/04 01:56:48;;;;;;;4.10;1.83;;;-1.70;99.90;;;;;;5045994;28;20090;-65
2023/04/04 01:59:14;;;;;;;7.68;2.00;;;-1.70;99.90;;;;;;5043897;28;20048;-65
2023/04/04 02:01:40;;;;;;;6.95;1.63;;;-1.80;99.90;;;;;;5041552;28;20626;-66
2023/04/04 02:04:06;;;;;;;5.82;2.13;;;-1.70;99.90;;;;;;5042547;28;20629;-66
2023/04/04 02:06:31;;;;;;;8.77;2.20;;;-1.80;99.90;;;;;;5042571;28;20049;-66
2023/04/04 02:08:57;;;;;;;4.05;2.10;;;-1.80;99.90;;;;;;5038797;28;20040;-67
2023/04/04 02:11:22;;;;;;;4.95;1.95;;;-1.80;99.90;;;;;;5045343;28;20081;-66
2023/04/04 02:13:48;;;;;;;5.03;1.98;;;-1.80;99.90;;;;;;5041969;28;20029;-66
2023/04/04 02:16:14;;;;;;;6.70;2.00;;;-1.80;99.90;;;;;;5046682;28;20127;-66
2023/04/04 02:18:40;;;;;;;9.05;2.00;;;-1.90;99.90;;;;;;5042725;28;20043;-66
2023/04/04 02:21:06;;;;;;;4.53;1.92;;;-1.80;99.90;;;;;;5045894;28;20047;-67
2023/04/04 02:23:32;;;;;;;6.68;2.20;;;-1.80;99.90;;;;;;5042663;28;20521;-67
2023/04/04 02:25:57;;;;;;;7.38;1.90;;;-1.80;99.90;;;;;;5042712;28;20087;-66
2023/04/04 02:28:23;;;;;;;7.25;2.17;;;-1.80;99.90;;;;;;5039725;28;20051;-66
2023/04/04 02:30:49;;;;;;;9.93;1.75;;;-1.80;99.90;;;;;;5044914;28;20091;-66
2023/04/04 02:33:15;;;;;;;5.50;2.05;;;-1.90;99.90;;;;;;5042648;28;20120;-67
2023/04/04 02:35:41;;;;;;;5.35;2.00;;;-1.90;99.90;;;;;;5043984;28;20132;-66
2023/04/04 02:38:07;;;;;;;4.32;2.08;;;-2.00;99.90;;;;;;5044216;28;20473;-66
2023/04/04 02:40:32;;;;;;;5.50;1.92;;;-2.00;99.90;;;;;;5043310;28;20481;-67
2023/04/04 02:42:58;;;;;;;6.53;1.80;;;-1.90;99.90;;;;;;5044452;28;20048;-66
2023/04/04 02:45:24;;;;;;;9.45;2.35;;;-1.90;99.90;;;;;;5043626;28;20048;-66
2023/04/04 02:47:50;;;;;;;5.80;2.15;;;-1.90;99.90;;;;;;5043636;28;20449;-67
2023/04/04 02:50:16;;;;;;;5.30;1.80;;;-1.90;99.90;;;;;;5044444;28;20076;-67
2023/04/04 02:52:42;;;;;;;6.68;1.83;;;-2.00;99.90;;;;;;5044862;28;20061;-66
2023/04/04 02:55:08;;;;;;;5.63;2.55;;;-2.00;99.90;;;;;;5042082;28;20041;-67
2023/04/04 02:57:34;;;;;;;5.65;2.13;;;-2.00;99.90;;;;;;5045616;28;20048;-67
2023/04/04 02:59:59;;;;;;;6.57;2.22;;;-2.00;99.90;;;;;;5042257;28;20557;-66
2023/04/04 03:02:25;;;;;;;8.35;2.00;;;-2.00;99.90;;;;;;5044121;28;20045;-66
2023/04/04 03:04:51;;;;;;;2.67;1.67;;;-2.10;99.90;;;;;;5040967;28;20036;-66
2023/04/04 03:07:17;;;;;;;5.70;2.08;;;-2.10;99.90;;;;;;5045157;28;20048;-67
2023/04/04 03:09:45;;;;;;;4.25;2.08;;;-2.10;99.90;;;;;;5041998;28;20452;-66
2023/04/04 03:12:11;;;;;;;7.28;2.30;;;-2.20;99.90;;;;;;5040545;28;20033;-66
2023/04/04 03:14:37;;;;;;;3.58;1.75;;;-2.20;99.90;;;;;;5038741;28;20045;-67
2023/04/04 03:17:03;;;;;;;11.95;1.92;;;-2.10;99.90;;;;;;5042016;28;20036;-66
2023/04/04 03:19:29;;;;;;;6.00;2.13;;;-2.10;99.90;;;;;;5041795;28;20076;-66
2023/04/04 03:21:55;;;;;;;5.32;1.60;;;-2.20;99.90;;;;;;5046097;28;20072;-66
2023/04/04 03:24:21;;;;;;;8.40;2.30;;;-2.10;99.90;;;;;;5039392;28;20037;-66
2023/04/04 03:26:47;;;;;;;7.07;2.05;;;-2.20;99.90;;;;;;5044835;28;20041;-67
2023/04/04 03:29:12;;;;;;;3.78;1.77;;;-2.30;99.90;;;;;;5042054;28;20091;-66
2023/04/04 03:31:38;;;;;;;4.55;2.13;;;-2.30;99.90;;;;;;5043237;28;20048;-66
2023/04/04 03:34:04;;;;;;;5.95;2.08;;;-2.30;99.90;;;;;;5040625;28;20041;-66
2023/04/04 03:36:30;;;;;;;9.50;1.98;;;-2.30;99.90;;;;;;5044166;28;20041;-66
2023/04/04 03:38:56;;;;;;;4.75;2.58;;;-2.40;99.90;;;;;;5042181;28;20033;-66
2023/04/04 03:41:21;;;;;;;5.68;2.40;;;-2.40;99.90;;;;;;5044416;28;20449;-66
2023/04/04 03:43:47;;;;;;;10.23;1.83;;;-2.40;99.90;;;;;;5040929;28;20669;-67
2023/04/04 03:46:13;;;;;;;7.75;1.80;;;-2.40;99.90;;;;;;5043986;28;20467;-66
2023/04/04 03:48:39;;;;;;;7.47;2.85;;;-2.50;99.90;;;;;;5039131;28;20075;-66
2023/04/04 03:51:05;;;;;;;7.75;2.42;;;-2.50;99.90;;;;;;5040677;28;20036;-68
2023/04/04 03:53:30;;;;;;;9.18;1.98;;;-2.50;99.90;;;;;;5043716;28;20791;-66
2023/04/04 03:55:56;;;;;;;5.63;1.80;;;-2.50;99.90;;;;;;5039923;28;20099;-66
2023/04/04 03:58:23;;;;;;;7.03;2.10;;;-2.50;99.90;;;;;;5043822;28;20037;-66
2023/04/04 04:00:49;;;;;;;10.50;2.80;;;-2.60;99.90;;;;;;5044513;28;20128;-66
2023/04/04 04:03:15;;;;;;;5.90;1.90;;;-2.60;99.90;;;;;;5046378;28;20121;-67
2023/04/04 04:05:41;;;;;;;7.60;2.03;;;-2.60;99.90;;;;;;5046745;28;20056;-66
2023/04/04 04:08:07;;;;;;;4.78;2.00;;;-2.70;99.90;;;;;;5048388;28;20456;-66
2023/04/04 04:10:33;;;;;;;9.10;2.10;;;-2.70;99.90;;;;;;5047751;28;20112;-66
2023/04/04 04:12:58;;;;;;;6.80;2.42;;;-2.70;99.90;;;;;;5047267;28;20120;-65
2023/04/04 04:15:24;;;;;;;8.48;3.08;;;-2.70;99.90;;;;;;5045122;28;20242;-66
2023/04/04 04:17:50;;;;;;;4.18;2.42;;;-2.70;99.90;;;;;;5045616;28;20401;-66
2023/04/04 04:20:15;;;;;;;5.10;2.17;;;-2.70;99.90;;;;;;5046979;28;20768;-66
2023/04/04 04:22:46;;;;;;;8.68;2.05;;;-2.80;99.90;;;;;;5046752;28;20033;-66
2023/04/04 04:25:13;;;;;;;10.35;2.25;;;-2.80;99.90;;;;;;5045595;28;20531;-67
2023/04/04 04:27:39;;;;;;;5.07;2.33;;;-2.80;99.90;;;;;;5047522;28;20072;-66
2023/04/04 04:30:06;;;;;;;9.02;2.00;;;-2.80;99.90;;;;;;5047698;28;20728;-66
2023/04/04 04:32:31;;;;;;;6.78;2.30;;;-2.80;99.90;;;;;;5044700;28;20052;-67
2023/04/04 04:34:57;;;;;;;6.97;2.28;;;-2.80;99.90;;;;;;5041629;28;20037;-67
2023/04/04 04:37:24;;;;;;;11.73;2.70;;;-2.80;99.90;;;;;;5046931;28;20041;-66
2023/04/04 04:39:51;;;;;;;7.57;2.10;;;-2.80;99.90;;;;;;5044624;28;20076;-66
2023/04/04 04:42:17;;;;;;;6.40;2.33;;;-2.80;99.90;;;;;;5046506;28;20818;-66
2023/04/04 04:44:42;;;;;;;6.43;2.47;;;-2.80;99.90;;;;;;5041927;28;20397;-67
2023/04/04 04:47:08;;;;;;;8.52;2.50;;;-2.80;99.90;;;;;;5045167;28;20041;-68
2023/04/04 04:49:34;;;;;;;7.72;2.38;;;-2.80;99.90;;;;;;5045227;28;20102;-67
2023/04/04 04:52:01;;;;;;;5.38;2.08;;;-2.70;99.90;;;;;;5043609;28;20040;-65
2023/04/04 04:54:27;;;;;;;21.27;2.65;;;-2.80;99.90;;;;;;5043106;28;20112;-66
2023/04/04 04:56:53;;;;;;;18.77;2.70;;;-2.80;99.90;;;;;;5046951;28;20124;-71
2023/04/04 04:59:19;;;;;;;6.75;2.13;;;-2.80;99.90;;;;;;5043843;28;20080;-66
2023/04/04 05:01:45;;;;;;;7.22;2.10;;;-2.80;99.90;;;;;;5046660;28;20041;-67
2023/04/04 05:04:10;;;;;;;10.13;2.30;;;-2.80;99.90;;;;;;5043015;28;20044;-66
2023/04/04 05:06:37;;;;;;;10.38;2.42;;;-2.80;99.90;;;;;;5045024;28;20067;-66
2023/04/04 05:09:03;;;;;;;10.15;2.35;;;-2.80;99.90;;;;;;5045057;28;20048;-66
2023/04/04 05:11:28;;;;;;;8.07;2.83;;;-2.80;99.90;;;;;;5046604;28;20496;-66
2023/04/04 05:13:54;;;;;;;7.50;2.13;;;-2.80;99.90;;;;;;5043752;28;20051;-67
2023/04/04 05:16:20;;;;;;;12.82;2.58;;;-2.80;99.90;;;;;;5044408;28;20033;-67
2023/04/04 05:18:46;;;;;;;7.35;2.40;;;-2.80;99.90;;;;;;5040616;28;20041;-67
2023/04/04 05:21:11;;;;;;;8.40;2.30;;;-2.70;99.90;;;;;;5047588;28;20076;-67
2023/04/04 05:23:37;;;;;;;3.53;1.88;;;-2.60;99.90;;;;;;5044533;28;20124;-67
2023/04/04 05:26:02;;;;;;;5.57;2.42;;;-2.20;99.90;;;;;;5046236;28;20045;-68
2023/04/04 05:28:28;;;;;;;8.02;2.15;;;-1.70;99.90;;;;;;5043804;28;20065;-67
2023/04/04 05:30:53;;;;;;;9.23;2.35;;;-1.70;99.90;;;;;;5041231;28;20071;-68
2023/04/04 05:33:19;;;;;;;9.80;2.80;;;-1.80;99.90;;;;;;5043732;28;20042;-68
2023/04/04 05:35:45;;;;;;;8.82;2.53;;;-1.90;99.90;;;;;;5043185;28;20455;-68
2023/04/04 05:38:11;;;;;;;6.50;2.30;;;-1.90;99.90;;;;;;5044911;28;20440;-67
2023/04/04 05:40:36;;;;;;;6.45;2.10;;;-1.90;99.90;;;;;;5044883;28;20045;-67
2023/04/04 05:43:03;;;;;;;9.68;2.53;;;-1.70;99.90;;;;;;5045742;28;20382;-67
2023/04/04 05:45:30;;;;;;;7.60;2.45;;;-1.70;99.90;;;;;;5043276;28;20040;-65
2023/04/04 05:47:56;;;;;;;13.05;2.90;;;-1.60;99.90;;;;;;5040345;28;20049;-66
2023/04/04 05:50:21;;;;;;;8.95;2.10;;;-1.60;99.90;;;;;;5044134;28;20166;-66
2023/04/04 05:52:47;;;;;;;5.63;2.53;;;-1.50;99.90;;;;;;5043816;28;20044;-66
2023/04/04 05:55:13;;;;;;;3.38;1.70;;;-1.50;99.90;;;;;;5045025;28;20532;-66
2023/04/04 05:57:46;;;;;;;9.27;2.50;;;-1.40;99.90;;;;;;5044885;28;20160;-66
2023/04/04 06:00:13;;;;;;;5.35;2.47;;;-1.30;99.90;;;;;;5045705;28;20071;-66
2023/04/04 06:02:38;;;;;;;19.20;2.78;;;-1.30;99.90;;;;;;5044815;28;20037;-66
2023/04/04 06:05:04;;;;;;;8.82;2.20;;;-0.90;99.90;;;;;;5038063;28;20037;-66
2023/04/04 06:07:30;;;;;;;7.82;2.13;;;-0.10;99.90;;;;;;5043320;28;20041;-66
2023/04/04 06:09:56;;;;;;;15.93;2.45;;;0.60;99.90;;;;;;5042803;28;20036;-66
2023/04/04 06:12:21;;;;;;;11.48;4.90;;;1.00;99.90;;;;;;5045448;28;20060;-66
2023/04/04 06:14:47;;;;;;;27.52;13.63;;;1.00;99.90;;;;;;5042003;28;20076;-67
2023/04/04 06:17:12;;;;;;;24.45;10.18;;;1.00;99.90;;;;;;5045274;28;20117;-66
2023/04/04 06:19:38;;;;;;;12.95;5.57;;;1.10;99.90;;;;;;5043056;28;20071;-66
2023/04/04 06:22:03;;;;;;;10.65;3.85;;;1.30;99.90;;;;;;5045997;28;20025;-67
2023/04/04 06:24:29;;;;;;;7.13;3.97;;;1.90;99.90;;;;;;5041903;28;20123;-65
2023/04/04 06:26:55;;;;;;;9.88;3.63;;;2.20;99.90;;;;;;5044768;28;20041;-65
2023/04/04 06:29:20;;;;;;;7.35;2.95;;;2.30;99.90;;;;;;5038281;28;20067;-66
2023/04/04 06:31:46;;;;;;;4.88;2.70;;;2.60;99.90;;;;;;5044632;28;20044;-65
2023/04/04 06:34:11;;;;;;;6.13;3.17;;;2.50;99.90;;;;;;5041811;28;20059;-66
2023/04/04 06:36:37;;;;;;;7.25;3.10;;;2.40;99.90;;;;;;5045661;28;20576;-65
2023/04/04 06:39:02;;;;;;;5.72;2.40;;;2.10;99.90;;;;;;5042418;28;20029;-66
2023/04/04 06:41:28;;;;;;;8.93;3.58;;;2.10;99.90;;;;;;5045294;28;20048;-65
2023/04/04 06:43:53;;;;;;;4.57;2.20;;;2.00;99.90;;;;;;5043475;28;20516;-65
2023/04/04 06:46:19;;;;;;;7.00;1.73;;;1.80;99.90;;;;;;5042030;28;20064;-65
2023/04/04 06:48:45;;;;;;;5.90;1.80;;;1.70;99.40;;;;;;5042361;28;20573;-65
2023/04/04 06:51:10;;;;;;;;;;;2.30;99.90;;;;;;5044836;28;20154;-66
2023/04/04 06:53:37;;;;;;;5.22;2.03;;;3.30;98.30;;;;;;5045243;28;19952;-65
2023/04/04 06:56:03;;;;;;;4.80;1.50;;;3.30;95.90;;;;;;5042936;28;20508;-66
2023/04/04 06:58:29;;;;;;;2.72;1.48;;;4.00;96.50;;;;;;5041989;28;20095;-66
2023/04/04 07:00:58;;;;;;;3.70;1.67;;;4.10;95.20;;;;;;5044548;28;20504;-66
2023/04/04 07:03:24;;;;;;;3.88;1.90;;;4.70;94.70;;;;;;5042588;28;20080;-66
2023/04/04 07:05:50;;;;;;;2.47;1.40;;;5.70;93.60;;;;;;5042063;28;20042;-66
2023/04/04 07:08:15;;;;;;;;;;;5.70;92.10;;;;;;5039970;28;20040;-66
2023/04/04 07:10:41;;;;;;;4.50;1.98;;;5.40;92.00;;;;;;5039339;28;19929;-66
2023/04/04 07:13:07;;;;;;;4.80;1.90;;;5.00;92.20;;;;;;5042413;28;20662;-66
2023/04/04 07:15:32;;;;;;;2.47;1.63;;;4.80;91.30;;;;;;5041834;28;20041;-66
2023/04/04 07:17:58;;;;;;;2.88;1.50;;;4.80;91.90;;;;;;5037005;28;20032;-66
2023/04/04 07:20:25;;;;;;;4.72;2.20;;;4.30;92.00;;;;;;5043414;28;20033;-66
2023/04/04 07:22:51;;;;;;;4.72;1.85;;;4.10;93.80;;;;;;5043161;28;20182;-66
2023/04/04 07:25:17;;;;;;;4.82;2.45;;;3.80;92.90;;;;;;5043846;28;20654;-68
2023/04/04 07:27:42;;;;;;;6.97;2.20;;;3.60;93.30;;;;;;5044303;28;20037;-68
2023/04/04 07:30:08;;;;;;;5.00;2.25;;;3.50;93.90;;;;;;5047268;28;20553;-67
2023/04/04 07:32:34;;;;;;;7.18;2.22;;;3.60;93.80;;;;;;5046706;28;20127;-66
2023/04/04 07:35:00;;;;;;;10.30;2.85;;;3.70;93.70;;;;;;5045455;28;20140;-67
2023/04/04 07:37:26;;;;;;;6.13;2.55;;;3.50;93.10;;;;;;5048406;28;20935;-67
2023/04/04 07:39:52;;;;;;;4.00;2.47;;;3.30;94.50;;;;;;5042759;28;20040;-67
2023/04/04 07:42:24;;;;;;;4.57;2.55;;;3.10;94.00;;;;;;5049553;28;20095;-67
2023/04/04 07:44:50;;;;;;;7.85;3.00;;;3.20;94.10;;;;;;5044440;28;20037;-67
2023/04/04 07:47:17;;;;;;;4.30;3.03;;;3.20;94.60;;;;;;5047782;28;20045;-67
2023/04/04 07:49:43;;;;;;;5.85;2.50;;;3.10;93.90;;;;;;5045424;28;20120;-67
2023/04/04 07:52:09;;;;;;;5.47;2.88;;;2.70;94.60;;;;;;5047730;28;20120;-67
2023/04/04 07:54:35;;;;;;;5.95;3.17;;;2.70;93.80;;;;;;5044653;28;20039;-67
2023/04/04 07:57:04;;;;;;;7.00;2.97;;;3.00;94.70;;;;;;5048297;28;20063;-67
2023/04/04 07:59:30;;;;;;;7.97;3.33;;;3.60;94.10;;;;;;5042893;28;20053;-67
2023/04/04 08:01:56;;;;;;;5.72;3.00;;;4.10;92.70;;;;;;5047457;28;20045;-67
2023/04/04 08:04:22;;;;;;;4.85;2.47;;;4.60;91.90;;;;;;5043756;28;20047;-67
2023/04/04 08:06:47;;;;;;;6.55;2.90;;;5.10;90.30;;;;;;5046847;28;20124;-67
2023/04/04 08:09:13;;;;;;;4.63;2.42;;;5.50;88.40;;;;;;5045172;28;20044;-68
2023/04/04 08:11:38;;;;;;;;;;;6.70;89.40;;;;;;5047373;28;20041;-67
2023/04/04 08:14:04;;;;;;;4.70;2.13;;;7.40;81.50;;;;;;5044852;28;19921;-68
2023/04/04 08:16:30;;;;;;;;;;;8.30;79.90;;;;;;5046271;28;20037;-68
2023/04/04 08:18:55;;;;;;;4.43;2.10;;;8.70;79.10;;;;;;5044693;28;19970;-68
2023/04/04 08:21:21;;;;;;;;;;;8.70;73.30;;;;;;5047778;28;20556;-67
2023/04/04 08:23:47;;;;;;;6.00;2.78;;;8.60;75.20;;;;;;5044856;28;20609;-67
2023/04/04 08:26:12;;;;;;;9.30;3.17;;;8.40;72.50;;;;;;5044513;28;20036;-67
2023/04/04 08:28:38;;;;;;;;;;;8.60;72.40;;;;;;5044267;28;20041;-68
2023/04/04 08:31:03;;;;;;;3.85;2.30;;;8.90;75.70;;;;;;5047249;28;19916;-67
2023/04/04 08:33:29;;;;;;;;;;;9.10;71.80;;;;;;5044497;28;20078;-67
2023/04/04 08:35:57;;;;;;;6.97;2.58;;;9.10;72.50;;;;;;5046186;28;19951;-66
2023/04/04 08:38:22;;;;;;;5.82;2.47;;;8.00;70.10;;;;;;5044034;28;20052;-66
2023/04/04 08:40:48;;;;;;;;;;;6.70;75.20;;;;;;5039170;28;20041;-67
2023/04/04 08:43:15;;;;;;;4.65;2.38;;;5.70;79.40;;;;;;5043460;28;19970;-66
2023/04/04 08:45:43;;;;;;;5.72;2.78;;;4.80;84.80;;;;;;5044832;28;20152;-67
2023/04/04 08:48:11;;;;;;;7.57;3.10;;;4.00;86.50;;;;;;5042916;28;20048;-66
2023/04/04 08:50:39;;;;;;;6.22;2.78;;;3.80;89.40;;;;;;5043190;28;20109;-65
2023/04/04 08:53:06;;;;;;;5.32;2.20;;;3.60;90.70;;;;;;5045393;28;20116;-66
2023/04/04 08:55:32;;;;;;;3.58;2.42;;;3.70;91.40;;;;;;5046920;28;20045;-66
2023/04/04 08:57:57;;;;;;;5.30;2.55;;;3.60;90.00;;;;;;5046631;28;20501;-66
2023/04/04 09:00:24;;;;;;;5.20;2.45;;;3.30;90.30;;;;;;5044637;28;20037;-66
2023/04/04 09:02:59;;;;;;;3.63;2.78;;;3.40;92.70;;;;;;5045387;28;20032;-65
2023/04/04 09:05:25;;;;;;;14.00;3.53;;;3.30;90.90;;;;;;5044287;28;20045;-66
2023/04/04 09:07:52;;;;;;;5.40;2.78;;;3.30;91.30;;;;;;5043282;28;20307;-66
2023/04/04 09:10:19;;;;;;;6.35;2.67;;;3.20;93.80;;;;;;5045026;28;20040;-66
2023/04/04 09:12:47;;;;;;;9.13;3.00;;;3.20;93.00;;;;;;5045240;28;20464;-66
2023/04/04 09:15:13;;;;;;;6.40;2.92;;;3.20;92.40;;;;;;5043840;28;20657;-65
2023/04/04 09:17:39;;;;;;;4.53;2.22;;;3.10;93.10;;;;;;5045596;28;20052;-66
2023/04/04 09:20:36;;;;;;;4.85;2.67;;;3.10;90.00;;;;;;5044213;28;20064;-66
2023/04/04 09:23:09;;;;;;;6.45;2.80;;;3.40;91.80;;;;;;5040133;28;20624;-66
2023/04/04 09:25:36;;;;;;;8.20;3.22;;;3.50;91.60;;;;;;5042677;28;20060;-65
2023/04/04 09:28:04;;;;;;;4.68;2.72;;;3.40;91.50;;;;;;5044725;28;20045;-65
2023/04/04 09:30:33;;;;;;;8.18;3.13;;;3.30;91.60;;;;;;5043016;28;20052;-65
2023/04/04 09:33:04;;;;;;;5.38;2.60;;;3.40;91.40;;;;;;5043055;28;20385;-65
2023/04/04 09:35:33;;;;;;;5.30;2.65;;;3.30;90.70;;;;;;5043464;28;20044;-65
2023/04/04 09:37:59;;;;;;;4.78;2.83;;;3.30;91.40;;;;;;5040193;28;20091;-65
2023/04/04 09:40:27;;;;;;;5.60;2.33;;;3.30;92.50;;;;;;5040979;28;20061;-65
2023/04/04 09:42:55;;;;;;;4.32;2.40;;;3.10;91.30;;;;;;5042149;28;20049;-66
2023/04/04 09:45:25;;;;;;;6.85;2.90;;;3.20;92.10;;;;;;5044493;28;20048;-67
2023/04/04 09:47:50;;;;;;;6.47;2.80;;;3.50;92.40;;;;;;5044521;28;20041;-67
2023/04/04 09:50:24;;;;;;;7.00;2.40;;;3.50;91.50;;;;;;5043802;28;20094;-67
2023/04/04 09:52:51;;;;;;;5.00;2.70;;;3.80;92.30;;;;;;5044401;28;20072;-67
2023/04/04 09:55:17;;;;;;;5.85;2.50;;;3.80;91.70;;;;;;5043988;28;20612;-67
2023/04/04 09:57:45;;;;;;;3.70;2.35;;;4.00;90.80;;;;;;5041383;28;20078;-67
2023/04/04 10:00:11;;;;;;;8.00;2.60;;;3.90;91.40;;;;;;5044462;28;20040;-66
2023/04/04 10:02:39;;;;;;;6.05;2.72;;;3.70;92.20;;;;;;5044246;28;20044;-67
2023/04/04 10:05:09;;;;;;;5.32;2.25;;;3.80;91.20;;;;;;5044353;28;20124;-67
2023/04/04 10:07:38;;;;;;;9.40;2.38;;;3.90;91.30;;;;;;5041949;28;20083;-67
2023/04/04 10:10:08;;;;;;;5.60;2.45;;;4.10;91.30;;;;;;5041925;28;20084;-67
2023/04/04 10:12:35;;;;;;;8.23;2.38;;;4.00;88.80;;;;;;5045704;28;20033;-67
2023/04/04 10:15:02;;;;;;;6.32;2.22;;;3.80;90.00;;;;;;5041863;28;20040;-67
2023/04/04 10:17:36;;;;;;;6.90;2.10;;;3.60;90.70;;;;;;5041711;28;20121;-67
2023/04/04 10:20:05;;;;;;;5.32;1.80;;;3.90;91.20;;;;;;5041489;28;20140;-67
2023/04/04 10:22:32;;;;;;;4.28;2.17;;;4.00;90.40;;;;;;5045731;28;20084;-67
2023/04/04 10:24:58;;;;;;;6.80;1.70;;;4.10;90.60;;;;;;5043270;28;20116;-67
2023/04/04 10:27:24;;;;;;;9.45;2.53;;;4.20;87.20;;;;;;5044834;28;20078;-66
2023/04/04 10:29:50;;;;;;;3.72;1.83;;;4.10;90.70;;;;;;5042258;28;20041;-66
2023/04/04 10:32:25;;;;;;;7.35;2.33;;;4.00;91.10;;;;;;5044871;28;20497;-67
2023/04/04 10:35:09;;;;;;;6.65;2.38;;;4.00;90.60;;;;;;5041162;28;20056;-67
2023/04/04 10:38:07;;;;;;;5.63;1.88;;;4.20;92.60;;;;;;5042804;28;20047;-66
2023/04/04 10:40:38;;;;;;;6.53;2.42;;;4.20;91.70;;;;;;5030700;28;20102;-66
2023/04/04 10:43:05;;;;;;;5.22;2.03;;;4.00;91.70;;;;;;5038736;28;20091;-67
2023/04/04 10:45:35;;;;;;;3.85;1.90;;;4.00;90.20;;;;;;5042043;28;20049;-67
2023/04/04 10:48:02;;;;;;;4.60;2.15;;;4.20;90.00;;;;;;5039023;28;20041;-67
2023/04/04 10:50:30;;;;;;;7.93;2.85;;;4.30;89.00;;;;;;5044695;28;20045;-66
2023/04/04 10:52:58;;;;;;;5.20;1.90;;;4.50;92.10;;;;;;5044567;28;20545;-66
2023/04/04 10:55:25;;;;;;;5.75;2.00;;;4.60;90.50;;;;;;5042220;28;20049;-66
2023/04/04 10:57:54;;;;;;;4.97;1.83;;;4.40;90.90;;;;;;5041642;28;20055;-66
2023/04/04 11:00:22;;;;;;;5.70;2.13;;;4.50;91.00;;;;;;5043049;28;20040;-66
2023/04/04 11:02:56;;;;;;;3.80;1.77;;;4.40;91.40;;;;;;5041865;28;20037;-66
2023/04/04 11:05:26;;;;;;;3.67;2.17;;;4.20;90.60;;;;;;5043326;28;20048;-66
2023/04/04 11:07:58;;;;;;;4.95;2.10;;;4.40;90.70;;;;;;5039621;28;20041;-66
2023/04/04 11:10:29;;;;;;;4.82;2.40;;;4.50;90.20;;;;;;5040803;28;20032;-66
2023/04/04 11:12:57;;;;;;;3.95;2.00;;;4.60;87.70;;;;;;5043623;28;20096;-66
2023/04/04 11:15:24;;;;;;;4.63;1.85;;;4.60;88.10;;;;;;5043148;28;20041;-65
2023/04/04 11:18:01;;;;;;;3.88;1.95;;;4.60;88.20;;;;;;5041028;28;20037;-65
2023/04/04 11:20:33;;;;;;;5.97;2.15;;;4.50;87.50;;;;;;5043195;28;20057;-65
2023/04/04 11:23:13;;;;;;;6.95;2.78;;;4.40;88.10;;;;;;5039078;28;20041;-65
2023/04/04 11:25:40;;;;;;;3.15;1.48;;;4.50;87.80;;;;;;5042165;28;20049;-66
2023/04/04 11:28:14;;;;;;;4.07;1.70;;;4.50;86.70;;;;;;5042718;28;20041;-66
2023/04/04 11:30:47;;;;;;;9.60;2.22;;;4.60;89.30;;;;;;5044416;28;20044;-66
2023/04/04 11:33:23;;;;;;;7.80;1.92;;;4.60;87.80;;;;;;5043444;28;20036;-66
2023/04/04 11:35:49;;;;;;;4.50;2.20;;;4.70;91.20;;;;;;5039959;28;20041;-65
2023/04/04 11:38:16;;;;;;;5.88;2.22;;;4.40;90.30;;;;;;5042789;28;20114;-65
2023/04/04 11:40:51;;;;;;;5.50;2.28;;;4.50;90.70;;;;;;5044531;28;20072;-66
2023/04/04 11:43:19;;;;;;;4.40;2.10;;;4.60;86.10;;;;;;5043552;28;20201;-66
2023/04/04 11:45:45;;;;;;;4.68;1.48;;;4.50;84.80;;;;;;5041909;28;20276;-66
2023/04/04 11:48:14;;;;;;;7.22;1.75;;;4.80;88.80;;;;;;5043091;28;20814;-66
2023/04/04 11:50:41;;;;;;;8.00;2.40;;;4.80;86.00;;;;;;5043029;28;20044;-65
2023/04/04 11:53:08;;;;;;;3.40;1.67;;;4.70;83.40;;;;;;5042467;28;20045;-66
2023/04/04 11:55:40;;;;;;;4.32;1.75;;;4.50;87.20;;;;;;5042660;28;20073;-65
2023/04/04 11:58:11;;;;;;;5.07;1.83;;;4.70;89.80;;;;;;5042132;28;20537;-66
2023/04/04 12:00:38;;;;;;;4.00;1.90;;;4.70;87.70;;;;;;5041992;28;20045;-66
2023/04/04 12:03:10;;;;;;;5.68;1.77;;;4.90;87.60;;;;;;5044177;28;20057;-65
2023/04/04 12:05:37;;;;;;;6.85;1.70;;;4.80;86.20;;;;;;5042645;28;20052;-65
2023/04/04 12:08:05;;;;;;;4.05;1.65;;;4.80;83.10;;;;;;5043728;28;20042;-65
2023/04/04 12:10:34;;;;;;;5.25;2.30;;;4.90;80.10;;;;;;5037660;28;20121;-65
2023/04/04 12:13:01;;;;;;;5.30;2.00;;;4.90;82.50;;;;;;5037034;28;20077;-65
2023/04/04 12:15:28;;;;;;;3.05;1.88;;;4.70;80.50;;;;;;5044738;28;20124;-64
2023/04/04 12:17:55;;;;;;;5.03;2.15;;;4.70;80.40;;;;;;5043444;28;20045;-65
2023/04/04 12:20:23;;;;;;;6.30;2.35;;;4.70;78.40;;;;;;5045515;28;20041;-65
2023/04/04 12:22:53;;;;;;;7.43;2.20;;;4.80;80.70;;;;;;5045689;28;20036;-65
2023/04/04 12:25:21;;;;;;;5.05;2.22;;;5.00;80.80;;;;;;5045995;28;20068;-65
2023/04/04 12:27:49;;;;;;;7.38;2.15;;;4.80;81.90;;;;;;5045617;28;20049;-65
2023/04/04 12:30:16;;;;;;;3.45;1.80;;;5.10;82.80;;;;;;5045965;28;20468;-66
2023/04/04 12:32:44;;;;;;;5.72;2.33;;;5.10;79.50;;;;;;5047557;28;20040;-66
2023/04/04 12:35:11;;;;;;;3.85;2.00;;;4.80;78.10;;;;;;5045006;28;20037;-66
2023/04/04 12:37:36;;;;;;;4.05;2.08;;;4.90;80.70;;;;;;5045317;28;20436;-66
2023/04/04 12:40:03;;;;;;;5.40;2.13;;;5.20;83.70;;;;;;5045698;28;20032;-66
2023/04/04 12:42:30;;;;;;;4.82;2.17;;;5.30;82.90;;;;;;5046631;28;20044;-66
2023/04/04 12:44:56;;;;;;;6.93;2.20;;;5.50;83.70;;;;;;5044814;28;20112;-66
2023/04/04 12:47:24;;;;;;;4.72;2.28;;;5.60;82.20;;;;;;5045739;28;20127;-66
2023/04/04 12:49:55;;;;;;;9.05;2.42;;;5.50;87.20;;;;;;5044539;28;20025;-66
2023/04/04 12:52:27;;;;;;;3.58;1.70;;;5.50;82.00;;;;;;5047167;28;20041;-66